KGNT

Grants-Milan Municipal Airport

Grants, New Mexico, USA
METAR KGNT 230055Z AUTO 17003KT 10SM CLR 11/07 A3020 RMK AO2 LTG DSNT N AND NW T01140065
Observed Flight Rules
Oct-23 @ 00:55 UTC (22 minutes ago) Visual Flight Rules
Wind Visibility Clouds
170° at 3 knots 10 miles
  • Clear skies
Temperatures Readings
Current 11°C / 52°F
Dewpoint 7°C / 45°F
Humidity 77%
Altimeter 30.2" Hg
Pressure 1023 hPa
Elevation 1987
METAR KGNT 230055Z AUTO 17003KT 10SM CLR 11/07 A3020 RMK AO2 LTG DSNT N AND NW T01140065
Observed Flight Rules
Oct-23 @ 00:55 UTC
(22 minutes ago)
VFR
Wind Visibility
170° at 3 knots 10 miles
Clouds
  • Clear skies
Temperature Dewpoint
11°C / 52°F 7°C / 45°F
Humidity Altimeter Pressure
77% 30.2" Hg 1023 hPa